Time;durP1;ratioP1;P1;durP2;ratioP2;P2;SDS_P1;SDS_P2;PMS_P1;PMS_P2;Temp;Humidity;BMP_temperature;BMP_pressure;BME280_temperature;BME280_humidity;BME280_pressure;Samples;Min_cycle;Max_cycle;Signal;HPM_P1;HPM_P2
2021/01/28 00:01:39;;;;;;;4.87;4.47;;;5.00;99.90;;;;;;5068288;28;20182;-54
2021/01/28 00:04:05;;;;;;;5.13;3.80;;;5.20;99.90;;;;;;5052671;28;20276;-54
2021/01/28 00:06:30;;;;;;;5.30;4.70;;;4.90;99.90;;;;;;5068856;28;20301;-53
2021/01/28 00:08:56;;;;;;;6.50;4.50;;;5.20;99.90;;;;;;5070299;28;20188;-53
2021/01/28 00:11:22;;;;;;;5.77;4.70;;;5.00;99.90;;;;;;5067409;28;20602;-53
2021/01/28 00:13:47;;;;;;;5.20;4.70;;;4.90;99.90;;;;;;5064825;28;20215;-53
2021/01/28 00:16:13;;;;;;;7.33;5.13;;;5.00;99.90;;;;;;5053378;28;20267;-53
2021/01/28 00:18:38;;;;;;;4.60;4.10;;;5.10;99.90;;;;;;5071086;28;20244;-54
2021/01/28 00:21:04;;;;;;;5.10;4.60;;;5.20;99.90;;;;;;5064493;28;20212;-53
2021/01/28 00:23:30;;;;;;;5.80;4.63;;;5.20;99.90;;;;;;5070059;28;20295;-53
2021/01/28 00:25:55;;;;;;;5.00;4.50;;;5.10;99.90;;;;;;5069677;28;20435;-54
2021/01/28 00:28:22;;;;;;;5.70;5.03;;;5.10;99.90;;;;;;5090492;28;20242;-54
2021/01/28 00:30:51;;;;;;;5.25;4.38;;;5.30;99.90;;;;;;5064173;28;20190;-53
2021/01/28 00:33:24;;;;;;;4.97;4.38;;;5.30;99.90;;;;;;5057584;28;20293;-53
2021/01/28 00:35:51;;;;;;;5.25;4.75;;;5.10;99.90;;;;;;5066476;28;20728;-53
2021/01/28 00:38:23;;;;;;;6.70;4.30;;;5.10;99.90;;;;;;5070168;28;20276;-53
2021/01/28 00:40:50;;;;;;;5.75;4.55;;;4.80;99.90;;;;;;5069130;28;20178;-53
2021/01/28 00:43:16;;;;;;;5.22;4.50;;;5.00;99.90;;;;;;5060299;28;20202;-53
2021/01/28 00:45:42;;;;;;;5.05;4.25;;;4.90;99.90;;;;;;5067310;28;20234;-53
2021/01/28 00:48:08;;;;;;;5.03;4.18;;;4.90;99.90;;;;;;5072260;28;20267;-53
2021/01/28 00:50:36;;;;;;;7.03;4.18;;;5.00;99.90;;;;;;5073122;28;20182;-54
2021/01/28 00:53:02;;;;;;;4.60;4.20;;;5.10;99.90;;;;;;5068319;28;20571;-53
2021/01/28 00:55:28;;;;;;;4.65;4.15;;;4.90;99.90;;;;;;5062048;28;20183;-54
2021/01/28 00:57:53;;;;;;;4.57;4.17;;;5.20;99.90;;;;;;5069771;28;20200;-53
2021/01/28 01:00:23;;;;;;;4.83;3.83;;;5.20;99.90;;;;;;5067600;28;20495;-53
2021/01/28 01:02:49;;;;;;;5.63;4.45;;;5.00;99.90;;;;;;5061244;28;20664;-54
2021/01/28 01:05:17;;;;;;;4.20;3.80;;;5.00;99.90;;;;;;5069695;28;20227;-53
2021/01/28 01:07:43;;;;;;;4.70;4.18;;;5.10;99.90;;;;;;5065612;28;20212;-54
2021/01/28 01:10:16;;;;;;;4.35;3.95;;;5.30;99.90;;;;;;5066747;28;20224;-53
2021/01/28 01:12:42;;;;;;;4.57;3.90;;;5.20;99.90;;;;;;5058281;28;20223;-53
2021/01/28 01:15:08;;;;;;;4.77;4.27;;;5.10;99.90;;;;;;5067892;28;20263;-54
2021/01/28 01:17:33;;;;;;;4.22;3.53;;;5.30;99.90;;;;;;5069350;28;20569;-53
2021/01/28 01:19:59;;;;;;;4.60;4.20;;;5.30;99.90;;;;;;5059752;28;20186;-53
2021/01/28 01:22:24;;;;;;;4.40;4.00;;;5.20;99.90;;;;;;5069184;28;20192;-54
2021/01/28 01:24:50;;;;;;;4.90;4.40;;;5.70;99.90;;;;;;5063054;28;20212;-53
2021/01/28 01:27:16;;;;;;;4.80;4.30;;;5.10;99.90;;;;;;5072611;28;20595;-53
2021/01/28 01:29:41;;;;;;;5.47;4.23;;;5.20;99.90;;;;;;5077901;28;20237;-53
2021/01/28 01:32:07;;;;;;;5.23;4.23;;;5.40;99.90;;;;;;5063181;28;20182;-54
2021/01/28 01:34:33;;;;;;;4.67;4.13;;;5.10;99.90;;;;;;5063090;28;20210;-54
2021/01/28 01:36:58;;;;;;;4.60;4.10;;;5.30;99.90;;;;;;5066858;28;20192;-53
2021/01/28 01:39:24;;;;;;;5.20;4.70;;;5.30;99.90;;;;;;5058232;28;20186;-52
2021/01/28 01:41:49;;;;;;;4.60;4.17;;;5.10;99.90;;;;;;5068735;28;20213;-54
2021/01/28 01:44:15;;;;;;;4.10;3.70;;;5.20;99.90;;;;;;5059397;28;20259;-54
2021/01/28 01:46:41;;;;;;;5.60;4.20;;;5.30;99.90;;;;;;5054020;28;20241;-54
2021/01/28 01:49:10;;;;;;;4.97;4.17;;;5.10;99.90;;;;;;5057532;28;20694;-54
2021/01/28 01:51:41;;;;;;;4.57;4.03;;;5.40;99.90;;;;;;5068336;28;20675;-54
2021/01/28 01:54:06;;;;;;;5.20;3.90;;;5.50;99.90;;;;;;5064368;28;20721;-52
2021/01/28 01:56:39;;;;;;;5.10;4.50;;;5.30;99.90;;;;;;5062672;28;20185;-54
2021/01/28 01:59:22;;;;;;;4.90;4.00;;;5.30;99.90;;;;;;5071989;28;20299;-53
2021/01/28 02:01:55;;;;;;;4.38;3.97;;;5.50;99.90;;;;;;5068610;28;20216;-54
2021/01/28 02:04:22;;;;;;;5.00;4.43;;;5.40;99.90;;;;;;5060382;28;20826;-53
2021/01/28 02:06:57;;;;;;;4.82;4.03;;;5.40;99.90;;;;;;5066589;28;20203;-54
2021/01/28 02:09:23;;;;;;;3.70;3.40;;;5.40;99.90;;;;;;5068584;28;20194;-54
2021/01/28 02:11:49;;;;;;;4.20;3.80;;;5.40;99.90;;;;;;5067456;28;20229;-54
2021/01/28 02:14:17;;;;;;;4.07;3.67;;;5.40;99.90;;;;;;5067912;28;20218;-54
2021/01/28 02:16:50;;;;;;;3.78;3.47;;;5.20;99.90;;;;;;5067502;28;20234;-54
2021/01/28 02:19:52;;;;;;;3.92;3.47;;;5.30;99.90;;;;;;5066254;28;20555;-53
2021/01/28 02:22:27;;;;;;;4.18;3.45;;;5.30;99.90;;;;;;5059588;28;20229;-53
2021/01/28 02:25:16;;;;;;;3.60;3.30;;;5.20;99.90;;;;;;5068648;28;20205;-54
2021/01/28 02:27:44;;;;;;;3.28;2.97;;;5.40;99.90;;;;;;5063397;28;20257;-54
2021/01/28 02:30:13;;;;;;;3.22;2.92;;;5.40;99.90;;;;;;5067861;28;20268;-54
2021/01/28 02:32:39;;;;;;;3.60;3.25;;;5.40;99.90;;;;;;5082902;28;20183;-53
2021/01/28 02:35:06;;;;;;;3.80;3.40;;;5.40;99.90;;;;;;5082389;28;20210;-53
2021/01/28 02:37:32;;;;;;;3.72;3.42;;;5.40;99.90;;;;;;5068611;28;20430;-53
2021/01/28 02:39:57;;;;;;;3.27;2.97;;;5.20;99.90;;;;;;5061193;28;20598;-53
2021/01/28 02:42:27;;;;;;;3.37;3.07;;;5.60;99.90;;;;;;5065002;28;20442;-54
2021/01/28 02:44:56;;;;;;;3.30;2.80;;;5.40;99.90;;;;;;5068844;28;20214;-54
2021/01/28 02:47:26;;;;;;;3.70;3.40;;;5.30;99.90;;;;;;5066523;28;20209;-53
2021/01/28 02:49:52;;;;;;;3.45;3.15;;;5.40;99.90;;;;;;5067580;28;20596;-54
2021/01/28 02:52:19;;;;;;;4.15;3.45;;;5.50;99.90;;;;;;5055715;28;20204;-53
2021/01/28 02:54:51;;;;;;;3.30;2.95;;;5.50;99.90;;;;;;5064121;28;20201;-54
2021/01/28 02:57:16;;;;;;;3.78;3.42;;;5.60;99.90;;;;;;5060517;28;20192;-54
2021/01/28 02:59:42;;;;;;;3.83;2.97;;;5.50;99.90;;;;;;5070297;28;20182;-53
2021/01/28 03:02:14;;;;;;;4.40;4.00;;;5.50;99.90;;;;;;5060343;28;20975;-54
2021/01/28 03:04:39;;;;;;;2.80;2.60;;;5.40;99.90;;;;;;5063744;28;20212;-52
2021/01/28 03:07:07;;;;;;;2.70;2.50;;;5.30;99.90;;;;;;5067608;28;20207;-53
2021/01/28 03:09:33;;;;;;;3.25;2.63;;;5.50;99.90;;;;;;5063642;28;20776;-54
2021/01/28 03:12:00;;;;;;;2.95;2.40;;;5.40;99.90;;;;;;5065318;28;20364;-53
2021/01/28 03:14:25;;;;;;;2.90;2.28;;;5.60;99.90;;;;;;5071806;28;20299;-53
2021/01/28 03:16:51;;;;;;;3.27;2.43;;;5.60;99.90;;;;;;5066213;28;20220;-54
2021/01/28 03:19:19;;;;;;;2.90;2.60;;;5.50;99.90;;;;;;5074140;28;20447;-53
2021/01/28 03:21:45;;;;;;;2.70;2.50;;;5.70;99.90;;;;;;5061753;28;20186;-54
2021/01/28 03:24:11;;;;;;;2.50;2.30;;;5.70;99.90;;;;;;5062077;28;20210;-53
2021/01/28 03:26:37;;;;;;;5.43;2.72;;;5.40;99.90;;;;;;5054236;28;20468;-54
2021/01/28 03:29:07;;;;;;;3.03;2.35;;;5.70;99.90;;;;;;5059034;28;20270;-54
2021/01/28 03:31:33;;;;;;;2.47;2.28;;;5.70;99.90;;;;;;5075269;28;20187;-53
2021/01/28 03:33:59;;;;;;;2.93;2.60;;;5.70;99.90;;;;;;5088109;28;20314;-53
2021/01/28 03:36:26;;;;;;;4.00;2.85;;;5.80;99.90;;;;;;5067759;28;20182;-54
2021/01/28 03:38:51;;;;;;;2.65;2.45;;;5.90;99.90;;;;;;5065676;28;20193;-54
2021/01/28 03:41:17;;;;;;;2.10;1.90;;;5.80;99.90;;;;;;5064737;28;20180;-54
2021/01/28 03:43:43;;;;;;;2.50;2.30;;;5.90;99.90;;;;;;5067550;28;20223;-54
2021/01/28 03:46:08;;;;;;;3.27;2.97;;;5.80;99.90;;;;;;5067294;28;20444;-54
2021/01/28 03:48:36;;;;;;;2.60;2.37;;;5.70;99.90;;;;;;5068925;28;20186;-54
2021/01/28 03:51:03;;;;;;;3.17;1.92;;;5.70;99.90;;;;;;5060441;28;20188;-54
2021/01/28 03:53:29;;;;;;;2.55;2.35;;;5.90;99.90;;;;;;5072020;28;20202;-53
2021/01/28 03:55:55;;;;;;;2.60;2.40;;;5.70;99.90;;;;;;5063407;28;20290;-54
2021/01/28 03:58:20;;;;;;;2.50;2.30;;;5.70;99.90;;;;;;5065464;28;20555;-53
2021/01/28 04:00:46;;;;;;;3.03;2.40;;;5.80;99.90;;;;;;5066793;28;20179;-54
2021/01/28 04:03:12;;;;;;;5.23;2.50;;;5.80;99.90;;;;;;5068315;28;20207;-53
2021/01/28 04:05:37;;;;;;;2.30;2.10;;;5.90;99.90;;;;;;5058694;28;20187;-54
2021/01/28 04:08:03;;;;;;;1.87;1.77;;;5.70;99.90;;;;;;5080085;28;20696;-54
2021/01/28 04:10:33;;;;;;;2.80;2.45;;;5.90;99.90;;;;;;5072898;28;20426;-53
2021/01/28 04:12:59;;;;;;;2.35;2.15;;;5.90;99.90;;;;;;5070180;28;20242;-54
2021/01/28 04:15:25;;;;;;;3.33;2.45;;;6.00;99.90;;;;;;5085553;28;20237;-53
2021/01/28 04:17:52;;;;;;;3.50;3.17;;;6.10;99.90;;;;;;5066255;28;20196;-53
2021/01/28 04:20:23;;;;;;;3.28;2.92;;;5.90;99.90;;;;;;5064585;28;20188;-54
2021/01/28 04:22:49;;;;;;;3.75;3.40;;;6.00;99.90;;;;;;5082855;28;20269;-54
2021/01/28 04:25:19;;;;;;;4.93;3.70;;;5.80;99.90;;;;;;5071517;28;20533;-54
2021/01/28 04:27:44;;;;;;;3.35;3.05;;;6.20;99.90;;;;;;5067724;28;20210;-54
2021/01/28 04:30:14;;;;;;;4.30;3.40;;;6.00;99.90;;;;;;5068152;28;20638;-54
2021/01/28 04:32:39;;;;;;;5.40;3.58;;;5.80;99.90;;;;;;5071113;28;20194;-54
2021/01/28 04:35:07;;;;;;;3.80;3.50;;;6.00;99.90;;;;;;5091504;28;20202;-54
2021/01/28 04:37:33;;;;;;;3.75;3.45;;;5.80;99.90;;;;;;5071527;28;20677;-53
2021/01/28 04:39:58;;;;;;;4.20;3.80;;;5.80;99.90;;;;;;5066755;28;20184;-53
2021/01/28 04:42:54;;;;;;;3.73;2.93;;;6.10;99.90;;;;;;5071730;28;20564;-53
2021/01/28 04:45:22;;;;;;;4.03;3.63;;;6.00;99.90;;;;;;5063152;28;20734;-53
2021/01/28 04:47:54;;;;;;;4.85;3.63;;;5.90;99.90;;;;;;5049944;28;20684;-54
2021/01/28 04:50:31;;;;;;;4.70;4.25;;;6.00;99.90;;;;;;5059398;28;20552;-54
2021/01/28 04:53:02;;;;;;;4.65;3.80;;;6.00;99.90;;;;;;5054141;28;20177;-54
2021/01/28 04:55:54;;;;;;;5.07;4.43;;;5.90;99.90;;;;;;5079567;28;20259;-54
2021/01/28 04:58:20;;;;;;;4.55;4.10;;;6.00;99.90;;;;;;5056677;28;20679;-54
2021/01/28 05:00:46;;;;;;;4.57;4.07;;;5.90;99.90;;;;;;5062081;28;20182;-54
2021/01/28 05:03:19;;;;;;;5.40;4.50;;;5.80;99.90;;;;;;5075034;28;20255;-54
2021/01/28 05:05:45;;;;;;;7.38;5.60;;;5.90;99.90;;;;;;5068565;28;20488;-54
2021/01/28 05:08:11;;;;;;;4.85;4.35;;;6.20;99.90;;;;;;5056841;28;20230;-54
2021/01/28 05:10:39;;;;;;;4.97;4.07;;;6.00;99.90;;;;;;5068939;28;20179;-54
2021/01/28 05:13:06;;;;;;;3.97;3.60;;;5.80;99.90;;;;;;5057579;28;20303;-54
2021/01/28 05:15:40;;;;;;;4.95;4.38;;;6.00;99.90;;;;;;5067522;28;20337;-53
2021/01/28 05:18:33;;;;;;;5.50;4.10;;;6.10;99.90;;;;;;5067333;28;20221;-54
2021/01/28 05:21:20;;;;;;;4.40;3.67;;;6.10;99.90;;;;;;5064190;28;20282;-54
2021/01/28 05:23:47;;;;;;;4.43;3.97;;;6.00;99.90;;;;;;5052480;28;20217;-54
2021/01/28 05:26:45;;;;;;;5.22;4.72;;;6.00;99.90;;;;;;5063772;28;20189;-54
2021/01/28 05:29:24;;;;;;;4.70;4.18;;;5.90;99.90;;;;;;5034725;28;20195;-54
2021/01/28 05:31:53;;;;;;;7.03;4.90;;;5.80;99.90;;;;;;5066429;28;20181;-53
2021/01/28 05:34:24;;;;;;;5.82;4.50;;;6.00;99.90;;;;;;5061045;28;20212;-54
2021/01/28 05:36:57;;;;;;;6.30;5.05;;;6.00;99.90;;;;;;5058418;28;20581;-54
2021/01/28 05:39:31;;;;;;;6.90;4.05;;;6.00;99.90;;;;;;5057235;28;20184;-54
2021/01/28 05:42:21;;;;;;;12.45;5.75;;;6.10;99.90;;;;;;5061254;28;20184;-52
2021/01/28 05:44:46;;;;;;;5.97;4.07;;;6.00;99.90;;;;;;5056892;28;20720;-52
2021/01/28 05:47:21;;;;;;;5.30;3.87;;;6.10;99.90;;;;;;5072706;28;20210;-53
2021/01/28 05:49:47;;;;;;;7.85;5.10;;;6.10;99.90;;;;;;5057589;28;20185;-52
2021/01/28 05:52:19;;;;;;;6.95;4.60;;;6.00;99.90;;;;;;5067205;28;20250;-53
2021/01/28 05:55:14;;;;;;;4.35;3.90;;;6.00;99.90;;;;;;5067803;28;20742;-54
2021/01/28 05:57:58;;;;;;;5.53;4.25;;;5.50;99.90;;;;;;5065694;28;20593;-54
2021/01/28 06:00:26;;;;;;;5.60;4.22;;;6.30;99.90;;;;;;5061573;28;20190;-54
2021/01/28 06:03:06;;;;;;;4.50;4.10;;;6.30;99.90;;;;;;5063863;28;20197;-54
2021/01/28 06:05:54;;;;;;;7.32;5.47;;;6.00;99.90;;;;;;5065551;28;20185;-54
2021/01/28 06:08:47;;;;;;;7.18;4.45;;;6.00;99.90;;;;;;5068219;28;20212;-54
2021/01/28 06:11:45;;;;;;;5.40;3.55;;;5.90;99.90;;;;;;5056934;28;20185;-58
2021/01/28 06:14:20;;;;;;;4.53;3.28;;;6.00;99.90;;;;;;5052409;28;20231;-54
2021/01/28 06:16:58;;;;;;;6.43;5.00;;;5.80;99.90;;;;;;5059782;28;20184;-51
2021/01/28 06:19:49;;;;;;;7.80;4.65;;;5.90;99.90;;;;;;5061158;28;20231;-54
2021/01/28 06:22:35;;;;;;;3.95;3.55;;;5.90;99.90;;;;;;5058607;28;20186;-53
2021/01/28 06:25:22;;;;;;;4.82;3.90;;;5.90;99.90;;;;;;5063193;28;20207;-54
2021/01/28 06:28:18;;;;;;;5.95;3.88;;;5.90;99.90;;;;;;5061429;28;20213;-53
2021/01/28 06:30:55;;;;;;;6.00;3.60;;;6.00;99.90;;;;;;5062670;28;20178;-53
2021/01/28 06:33:59;;;;;;;9.00;4.80;;;6.00;99.90;;;;;;5086931;28;20212;-53
2021/01/28 06:36:43;;;;;;;4.97;3.22;;;5.90;99.90;;;;;;5036223;28;20264;-53
2021/01/28 06:39:27;;;;;;;5.85;3.90;;;6.00;99.90;;;;;;5070349;28;20238;-54
2021/01/28 06:42:12;;;;;;;3.70;3.05;;;5.90;99.90;;;;;;5087704;28;20233;-53
2021/01/28 06:44:48;;;;;;;4.85;4.10;;;6.10;99.90;;;;;;5061015;28;20214;-53
2021/01/28 06:47:20;;;;;;;3.78;3.28;;;5.90;99.90;;;;;;5067429;28;20233;-54
2021/01/28 06:50:10;;;;;;;5.13;3.92;;;6.00;99.90;;;;;;5078636;28;20242;-54
2021/01/28 06:52:42;;;;;;;6.10;4.20;;;6.10;99.90;;;;;;5071764;28;20235;-54
2021/01/28 06:55:19;;;;;;;6.20;3.50;;;6.00;99.90;;;;;;5070445;28;20183;-54
2021/01/28 06:58:03;;;;;;;5.45;3.28;;;6.00;99.90;;;;;;5060243;28;20292;-54
2021/01/28 07:00:41;;;;;;;6.07;4.00;;;6.00;99.90;;;;;;5086758;28;20560;-54
2021/01/28 07:03:44;;;;;;;8.70;4.95;;;6.20;99.90;;;;;;5087293;28;20715;-54
2021/01/28 07:06:14;;;;;;;5.15;3.83;;;6.10;99.90;;;;;;5048204;28;20197;-53
2021/01/28 07:09:19;;;;;;;3.75;3.05;;;6.10;99.90;;;;;;5069022;28;20254;-54
2021/01/28 07:11:46;;;;;;;4.15;3.63;;;6.20;99.90;;;;;;5051388;28;20641;-53
2021/01/28 07:14:17;;;;;;;4.80;3.90;;;6.40;99.90;;;;;;5054978;28;20753;-53
2021/01/28 07:16:54;;;;;;;6.18;4.25;;;6.20;99.90;;;;;;5055594;28;20680;-54
2021/01/28 07:19:33;;;;;;;4.45;3.50;;;6.40;99.90;;;;;;5055038;28;20226;-53
2021/01/28 07:22:33;;;;;;;4.78;4.15;;;6.20;99.90;;;;;;5057621;28;20226;-54
2021/01/28 07:25:32;;;;;;;4.88;4.07;;;6.30;99.90;;;;;;5059604;28;20211;-52
2021/01/28 07:28:19;;;;;;;2.97;2.78;;;5.80;99.90;;;;;;5059240;28;20214;-53
2021/01/28 07:30:50;;;;;;;4.20;3.30;;;6.30;99.90;;;;;;5063136;28;20271;-54
2021/01/28 07:33:25;;;;;;;3.50;3.10;;;6.00;99.90;;;;;;5058648;28;20553;-55
2021/01/28 07:35:52;;;;;;;4.60;3.00;;;6.10;99.90;;;;;;5058502;28;20573;-54
2021/01/28 07:38:27;;;;;;;4.22;2.90;;;6.10;99.90;;;;;;5058930;28;20667;-54
2021/01/28 07:41:17;;;;;;;3.55;2.80;;;5.90;99.90;;;;;;5058866;28;20970;-55
2021/01/28 07:43:48;;;;;;;4.85;3.38;;;6.00;99.90;;;;;;5072783;28;20664;-53
2021/01/28 07:46:36;;;;;;;3.65;2.83;;;6.00;99.90;;;;;;5064482;28;20255;-54
2021/01/28 07:49:19;;;;;;;5.43;3.10;;;6.20;99.90;;;;;;5062296;28;20208;-52
2021/01/28 07:51:46;;;;;;;4.85;3.40;;;6.10;99.90;;;;;;5071003;28;20192;-52
2021/01/28 07:54:24;;;;;;;3.95;3.60;;;6.10;99.90;;;;;;5064148;28;20580;-55
2021/01/28 07:56:58;;;;;;;5.60;3.40;;;5.90;99.90;;;;;;5065223;28;20204;-54
2021/01/28 07:59:54;;;;;;;3.65;3.35;;;6.20;99.90;;;;;;5071011;28;20188;-52
2021/01/28 08:02:29;;;;;;;3.13;2.83;;;6.30;99.90;;;;;;5075672;28;20672;-52
2021/01/28 08:05:04;;;;;;;8.25;3.90;;;6.10;99.90;;;;;;5056981;28;20207;-52
2021/01/28 08:07:29;;;;;;;5.25;3.40;;;6.10;99.90;;;;;;5065027;28;20474;-53
2021/01/28 08:10:05;;;;;;;7.20;4.83;;;6.10;99.90;;;;;;5064524;28;20216;-53
2021/01/28 08:12:53;;;;;;;4.00;3.53;;;6.20;99.90;;;;;;5066191;28;20193;-52
2021/01/28 08:15:33;;;;;;;4.40;4.00;;;6.20;99.90;;;;;;5075622;28;20660;-52
2021/01/28 08:18:26;;;;;;;5.50;3.30;;;6.30;99.90;;;;;;5083546;28;20575;-54
2021/01/28 08:21:04;;;;;;;3.90;2.83;;;6.10;99.90;;;;;;5063124;28;20280;-53
2021/01/28 08:23:29;;;;;;;3.35;2.80;;;6.20;99.90;;;;;;5063960;28;20751;-54
2021/01/28 08:26:07;;;;;;;5.43;3.23;;;6.30;99.90;;;;;;5066767;28;20222;-53
2021/01/28 08:28:40;;;;;;;3.42;3.10;;;6.30;99.90;;;;;;5065600;28;20359;-52
2021/01/28 08:31:23;;;;;;;4.25;3.53;;;6.20;99.90;;;;;;5061501;28;20235;-54
2021/01/28 08:33:56;;;;;;;4.03;3.42;;;6.40;99.90;;;;;;5070659;28;20209;-52
2021/01/28 08:36:42;;;;;;;3.53;3.22;;;6.20;99.90;;;;;;5073053;28;20273;-54
2021/01/28 08:39:07;;;;;;;2.83;2.50;;;6.50;99.90;;;;;;5056826;28;20178;-54
2021/01/28 08:41:33;;;;;;;3.13;2.43;;;6.50;99.90;;;;;;5066003;28;20537;-54
2021/01/28 08:44:06;;;;;;;3.00;2.43;;;6.40;99.90;;;;;;5062009;28;20224;-54
2021/01/28 08:46:34;;;;;;;3.03;2.60;;;6.20;99.90;;;;;;5061422;28;20617;-53
2021/01/28 08:49:17;;;;;;;3.15;2.85;;;6.30;99.90;;;;;;5067074;28;20936;-54
2021/01/28 08:51:48;;;;;;;3.00;2.70;;;6.40;99.90;;;;;;5071038;28;20215;-53
2021/01/28 08:54:21;;;;;;;4.07;3.35;;;6.40;99.90;;;;;;5077966;28;20198;-53
2021/01/28 08:56:50;;;;;;;4.82;2.90;;;6.20;99.90;;;;;;5058050;28;20621;-53
2021/01/28 08:59:17;;;;;;;2.60;2.38;;;6.30;99.90;;;;;;5059315;28;20276;-54
2021/01/28 09:01:50;;;;;;;3.13;2.40;;;6.20;99.90;;;;;;5058613;28;20177;-54
2021/01/28 09:04:53;;;;;;;2.90;2.60;;;6.30;99.90;;;;;;5062388;28;20260;-54
2021/01/28 09:07:53;;;;;;;2.95;2.63;;;6.50;99.90;;;;;;5047258;28;20219;-53
2021/01/28 09:10:26;;;;;;;2.83;2.20;;;6.40;99.90;;;;;;5061890;28;20196;-54
2021/01/28 09:12:52;;;;;;;2.58;2.15;;;6.60;99.90;;;;;;5062543;28;20759;-54
2021/01/28 09:15:30;;;;;;;2.77;2.47;;;6.60;99.90;;;;;;5066717;28;20188;-53
2021/01/28 09:18:04;;;;;;;3.22;2.40;;;6.50;99.90;;;;;;5060556;28;20188;-54
2021/01/28 09:20:33;;;;;;;1.90;1.80;;;6.70;99.90;;;;;;5064982;28;20565;-54
2021/01/28 09:23:06;;;;;;;2.85;2.60;;;6.50;99.90;;;;;;5060078;28;20533;-52
2021/01/28 09:25:32;;;;;;;1.77;1.65;;;6.80;99.90;;;;;;5060935;28;20177;-53
2021/01/28 09:28:05;;;;;;;3.40;1.80;;;6.60;99.90;;;;;;5064114;28;20224;-53
2021/01/28 09:30:38;;;;;;;2.35;2.10;;;6.70;99.90;;;;;;5062982;28;20209;-54
2021/01/28 09:33:38;;;;;;;2.10;1.70;;;6.70;99.90;;;;;;5064519;28;20221;-54
2021/01/28 09:36:18;;;;;;;2.58;1.85;;;6.70;99.90;;;;;;5063749;28;20199;-53
2021/01/28 09:39:07;;;;;;;3.53;2.58;;;6.80;99.90;;;;;;5063541;28;20362;-54
2021/01/28 09:41:45;;;;;;;2.63;2.28;;;7.20;99.90;;;;;;5067359;28;20659;-53
2021/01/28 09:44:36;;;;;;;1.90;1.70;;;6.60;99.90;;;;;;5058857;28;20246;-54
2021/01/28 09:47:22;;;;;;;3.35;1.83;;;7.20;99.90;;;;;;5060617;28;20212;-54
2021/01/28 09:49:57;;;;;;;3.05;1.70;;;6.90;99.90;;;;;;5071723;28;20207;-55
2021/01/28 09:52:28;;;;;;;3.03;2.72;;;6.90;99.90;;;;;;5060584;28;20534;-55
2021/01/28 09:55:01;;;;;;;2.50;2.08;;;7.20;99.90;;;;;;5083420;28;20226;-54
2021/01/28 09:57:28;;;;;;;2.00;1.60;;;7.10;99.90;;;;;;5050412;28;20178;-54
2021/01/28 09:59:56;;;;;;;2.03;1.83;;;7.10;99.90;;;;;;5072214;28;20206;-53
2021/01/28 10:02:34;;;;;;;1.50;1.40;;;7.20;99.90;;;;;;5073405;28;20187;-54
2021/01/28 10:04:59;;;;;;;2.45;2.10;;;7.10;99.90;;;;;;5064556;28;20201;-54
2021/01/28 10:07:25;;;;;;;2.00;1.60;;;7.10;99.90;;;;;;5070999;28;20201;-54
2021/01/28 10:09:50;;;;;;;1.70;1.60;;;7.10;99.90;;;;;;5084449;28;20210;-54
2021/01/28 10:12:23;;;;;;;1.20;1.10;;;7.10;99.90;;;;;;5075466;28;20185;-54
2021/01/28 10:14:49;;;;;;;1.70;1.23;;;7.40;99.90;;;;;;5086215;28;20253;-54
2021/01/28 10:17:15;;;;;;;1.20;1.10;;;7.30;99.90;;;;;;5054243;28;20193;-54
2021/01/28 10:19:43;;;;;;;1.63;1.20;;;7.30;99.90;;;;;;5085562;28;20199;-54
2021/01/28 10:22:14;;;;;;;1.65;1.38;;;7.30;99.90;;;;;;5058573;28;20193;-55
2021/01/28 10:24:40;;;;;;;1.20;1.10;;;7.50;99.90;;;;;;5063677;28;20265;-54
2021/01/28 10:27:06;;;;;;;1.50;1.40;;;7.70;99.90;;;;;;5061931;28;20205;-54
2021/01/28 10:29:32;;;;;;;2.13;1.40;;;7.70;99.90;;;;;;5060142;28;20639;-54
2021/01/28 10:31:58;;;;;;;1.37;1.27;;;7.30;99.90;;;;;;5074791;28;20236;-53
2021/01/28 10:34:24;;;;;;;1.10;1.00;;;7.10;99.90;;;;;;5067756;28;20212;-54
2021/01/28 10:36:50;;;;;;;1.50;0.90;;;7.60;99.90;;;;;;5067104;28;20187;-54
2021/01/28 10:39:17;;;;;;;1.40;1.30;;;7.60;99.90;;;;;;5060849;28;20247;-54
2021/01/28 10:41:46;;;;;;;2.25;1.13;;;7.90;99.90;;;;;;5079678;28;20221;-53
2021/01/28 10:44:12;;;;;;;1.10;1.00;;;7.70;99.90;;;;;;5061784;28;20580;-54
2021/01/28 10:46:37;;;;;;;1.60;1.10;;;7.80;99.90;;;;;;5069410;28;20205;-53
2021/01/28 10:49:04;;;;;;;1.23;1.13;;;8.00;99.90;;;;;;5066960;28;20737;-53
2021/01/28 10:51:29;;;;;;;2.75;2.25;;;8.00;99.90;;;;;;5076449;28;20191;-52
2021/01/28 10:53:55;;;;;;;1.23;1.13;;;7.90;99.90;;;;;;5068920;28;20204;-52
2021/01/28 10:56:20;;;;;;;1.53;0.90;;;8.10;99.90;;;;;;5079239;28;20262;-53
2021/01/28 10:58:46;;;;;;;1.20;0.90;;;7.90;99.90;;;;;;5058029;28;20181;-53
2021/01/28 11:01:12;;;;;;;1.97;1.00;;;7.90;99.90;;;;;;5073022;28;20180;-53
2021/01/28 11:03:37;;;;;;;1.30;1.03;;;8.00;99.90;;;;;;5066732;28;20210;-53
2021/01/28 11:06:03;;;;;;;1.70;0.90;;;8.20;99.90;;;;;;5074124;28;20627;-53
2021/01/28 11:08:30;;;;;;;1.20;1.10;;;8.30;99.90;;;;;;5079760;28;20632;-52
2021/01/28 11:10:57;;;;;;;1.40;1.25;;;8.20;99.90;;;;;;5082049;28;20623;-52
2021/01/28 11:13:23;;;;;;;1.55;1.42;;;8.30;99.90;;;;;;5070548;28;20208;-53
2021/01/28 11:15:48;;;;;;;2.00;1.17;;;8.40;99.90;;;;;;5072044;28;20204;-53
2021/01/28 11:18:14;;;;;;;1.63;1.10;;;8.50;99.90;;;;;;5082180;28;20188;-53
2021/01/28 11:20:40;;;;;;;1.30;1.20;;;8.50;99.90;;;;;;5070020;28;20204;-53
2021/01/28 11:23:06;;;;;;;1.03;0.80;;;8.60;99.90;;;;;;5054247;28;21027;-53
2021/01/28 11:25:32;;;;;;;1.30;1.20;;;8.50;99.90;;;;;;5079717;28;20207;-53
2021/01/28 11:27:58;;;;;;;1.27;1.17;;;8.50;99.90;;;;;;5067561;28;20235;-54
2021/01/28 11:30:27;;;;;;;1.20;1.07;;;8.60;99.90;;;;;;5064176;28;20242;-54
2021/01/28 11:32:54;;;;;;;1.85;1.13;;;8.50;99.90;;;;;;5066500;28;20468;-54
2021/01/28 11:35:23;;;;;;;1.40;0.98;;;8.40;99.90;;;;;;5057220;28;20178;-53
2021/01/28 11:37:50;;;;;;;1.30;1.20;;;8.60;99.90;;;;;;5069715;28;20181;-53
2021/01/28 11:40:21;;;;;;;1.42;1.30;;;8.60;99.90;;;;;;5063727;28;20196;-54
2021/01/28 11:42:48;;;;;;;1.27;1.00;;;8.60;99.90;;;;;;5070499;28;20271;-53
2021/01/28 11:45:16;;;;;;;1.40;1.30;;;9.00;99.90;;;;;;5070242;28;20223;-53
2021/01/28 11:47:42;;;;;;;1.30;1.20;;;9.20;99.90;;;;;;5070650;28;20262;-54
2021/01/28 11:50:10;;;;;;;1.58;1.08;;;9.20;99.90;;;;;;5062181;28;20263;-54
2021/01/28 11:52:36;;;;;;;1.42;1.23;;;9.30;99.90;;;;;;5070245;28;20662;-53
2021/01/28 11:55:03;;;;;;;1.10;1.00;;;9.50;99.90;;;;;;5063680;28;20202;-53
2021/01/28 11:57:29;;;;;;;1.98;1.02;;;9.60;99.90;;;;;;5060567;28;20469;-54
2021/01/28 11:59:55;;;;;;;1.10;0.90;;;9.80;99.90;;;;;;5076481;28;20695;-53
2021/01/28 12:02:20;;;;;;;1.40;1.00;;;9.50;99.90;;;;;;5068434;28;20193;-53
2021/01/28 12:04:46;;;;;;;2.50;1.30;;;9.60;99.90;;;;;;5069774;28;20434;-54
2021/01/28 12:07:16;;;;;;;1.77;1.30;;;9.60;99.90;;;;;;5081073;28;20265;-54
2021/01/28 12:09:41;;;;;;;1.50;1.20;;;9.70;99.90;;;;;;5079969;28;20432;-53
2021/01/28 12:12:07;;;;;;;1.50;1.40;;;9.90;99.90;;;;;;5062271;28;20208;-55
2021/01/28 12:14:33;;;;;;;2.80;1.50;;;9.80;99.90;;;;;;5071195;28;20743;-54
2021/01/28 12:16:58;;;;;;;1.60;1.50;;;10.00;99.90;;;;;;5074520;28;20532;-54
2021/01/28 12:19:24;;;;;;;1.93;1.73;;;10.10;99.90;;;;;;5064432;28;20264;-54
2021/01/28 12:21:49;;;;;;;2.20;2.00;;;10.10;99.90;;;;;;5069959;28;20192;-54
2021/01/28 12:24:15;;;;;;;1.47;1.37;;;10.00;99.90;;;;;;5077777;28;20202;-55
2021/01/28 12:26:41;;;;;;;1.33;1.17;;;10.10;99.90;;;;;;5077664;28;20207;-54
2021/01/28 12:29:06;;;;;;;1.40;1.30;;;10.00;99.90;;;;;;5075722;28;20185;-54
2021/01/28 12:31:32;;;;;;;1.83;1.20;;;9.80;99.90;;;;;;5086270;28;20187;-54
2021/01/28 12:33:58;;;;;;;1.17;0.97;;;10.20;99.90;;;;;;5061905;28;20279;-54
2021/01/28 12:36:26;;;;;;;1.00;0.90;;;10.30;99.90;;;;;;5070653;28;20177;-54
2021/01/28 12:38:52;;;;;;;1.23;1.13;;;10.20;99.90;;;;;;5078063;28;20185;-54
2021/01/28 12:41:18;;;;;;;3.80;1.30;;;10.40;99.90;;;;;;5064898;28;20178;-54
2021/01/28 12:43:43;;;;;;;1.83;1.30;;;10.40;99.90;;;;;;5062819;28;20213;-55
2021/01/28 12:46:09;;;;;;;1.87;1.20;;;9.80;99.90;;;;;;5064523;28;20224;-54
2021/01/28 12:48:35;;;;;;;1.50;1.10;;;10.40;99.90;;;;;;5062965;28;20209;-55
2021/01/28 12:51:00;;;;;;;1.60;1.20;;;10.50;99.90;;;;;;5069437;28;20223;-54
2021/01/28 12:53:26;;;;;;;1.00;1.00;;;10.60;99.90;;;;;;5068506;28;20205;-54
2021/01/28 12:55:51;;;;;;;1.30;1.20;;;10.50;99.90;;;;;;5067370;28;20244;-54
2021/01/28 12:58:17;;;;;;;1.20;1.10;;;10.60;99.90;;;;;;5087646;28;20192;-54
2021/01/28 13:00:43;;;;;;;1.30;1.20;;;10.60;99.90;;;;;;5066094;28;20538;-54
2021/01/28 13:03:08;;;;;;;1.33;1.23;;;10.60;99.90;;;;;;5082805;28;20270;-54
2021/01/28 13:05:34;;;;;;;1.37;1.10;;;10.70;99.90;;;;;;5070653;28;20200;-54
2021/01/28 13:07:59;;;;;;;1.00;0.90;;;10.90;99.90;;;;;;5084099;28;20212;-54
2021/01/28 13:10:25;;;;;;;2.70;1.43;;;11.00;99.90;;;;;;5072518;28;20190;-54
2021/01/28 13:12:51;;;;;;;1.47;1.23;;;10.80;99.90;;;;;;5072314;28;20208;-54
2021/01/28 13:15:21;;;;;;;1.35;1.00;;;11.00;99.90;;;;;;5066377;28;20193;-54
2021/01/28 13:17:48;;;;;;;0.95;0.95;;;11.00;99.90;;;;;;5071419;28;20651;-54